sensor_id;sensor_type;location;lat;lon;timestamp;temperature;humidity
31783;DHT22;18351;47.560;9.708;2023-04-25T00:01:13;9.40;99.90
31783;DHT22;18351;47.560;9.708;2023-04-25T00:03:39;9.40;99.90
31783;DHT22;18351;47.560;9.708;2023-04-25T00:06:05;9.40;99.90
31783;DHT22;18351;47.560;9.708;2023-04-25T00:08:32;9.40;99.90
31783;DHT22;18351;47.560;9.708;2023-04-25T00:10:58;9.40;99.90
31783;DHT22;18351;47.560;9.708;2023-04-25T00:13:24;9.40;99.90
31783;DHT22;18351;47.560;9.708;2023-04-25T00:15:51;9.40;99.90
31783;DHT22;18351;47.560;9.708;2023-04-25T00:18:18;9.30;99.90
31783;DHT22;18351;47.560;9.708;2023-04-25T00:20:44;9.30;99.90
31783;DHT22;18351;47.560;9.708;2023-04-25T00:23:12;9.40;99.90
31783;DHT22;18351;47.560;9.708;2023-04-25T00:25:46;9.40;99.90
31783;DHT22;18351;47.560;9.708;2023-04-25T00:28:12;9.40;99.90
31783;DHT22;18351;47.560;9.708;2023-04-25T00:30:39;9.40;99.90
31783;DHT22;18351;47.560;9.708;2023-04-25T00:33:05;9.40;99.90
31783;DHT22;18351;47.560;9.708;2023-04-25T00:35:31;9.40;99.90
31783;DHT22;18351;47.560;9.708;2023-04-25T00:37:57;9.40;99.90
31783;DHT22;18351;47.560;9.708;2023-04-25T00:40:22;9.40;99.90
31783;DHT22;18351;47.560;9.708;2023-04-25T00:42:49;9.30;99.90
31783;DHT22;18351;47.560;9.708;2023-04-25T00:45:17;9.30;99.90
31783;DHT22;18351;47.560;9.708;2023-04-25T00:47:43;9.20;99.90
31783;DHT22;18351;47.560;9.708;2023-04-25T00:50:09;9.20;99.90
31783;DHT22;18351;47.560;9.708;2023-04-25T00:52:38;9.20;99.90
31783;DHT22;18351;47.560;9.708;2023-04-25T00:55:04;9.20;99.90
31783;DHT22;18351;47.560;9.708;2023-04-25T00:57:30;9.10;99.90
31783;DHT22;18351;47.560;9.708;2023-04-25T00:59:56;9.10;99.90
31783;DHT22;18351;47.560;9.708;2023-04-25T01:02:21;9.10;99.90
31783;DHT22;18351;47.560;9.708;2023-04-25T01:04:48;9.10;99.90
31783;DHT22;18351;47.560;9.708;2023-04-25T01:07:14;9.00;99.90
31783;DHT22;18351;47.560;9.708;2023-04-25T01:09:41;9.00;99.90
31783;DHT22;18351;47.560;9.708;2023-04-25T01:12:06;9.00;99.90
31783;DHT22;18351;47.560;9.708;2023-04-25T01:14:32;9.10;99.90
31783;DHT22;18351;47.560;9.708;2023-04-25T01:16:59;9.00;99.90
31783;DHT22;18351;47.560;9.708;2023-04-25T01:19:24;9.00;99.90
31783;DHT22;18351;47.560;9.708;2023-04-25T01:21:50;9.00;99.90
31783;DHT22;18351;47.560;9.708;2023-04-25T01:24:16;9.00;99.90
31783;DHT22;18351;47.560;9.708;2023-04-25T01:26:43;9.00;99.90
31783;DHT22;18351;47.560;9.708;2023-04-25T01:29:18;9.00;99.90
31783;DHT22;18351;47.560;9.708;2023-04-25T01:31:45;9.00;99.90
31783;DHT22;18351;47.560;9.708;2023-04-25T01:34:11;9.00;99.90
31783;DHT22;18351;47.560;9.708;2023-04-25T01:36:37;8.90;99.90
31783;DHT22;18351;47.560;9.708;2023-04-25T01:39:03;9.00;99.90
31783;DHT22;18351;47.560;9.708;2023-04-25T01:41:28;9.00;99.90
31783;DHT22;18351;47.560;9.708;2023-04-25T01:43:54;9.00;99.90
31783;DHT22;18351;47.560;9.708;2023-04-25T01:46:20;9.00;99.90
31783;DHT22;18351;47.560;9.708;2023-04-25T01:48:46;9.00;99.90
31783;DHT22;18351;47.560;9.708;2023-04-25T01:51:12;9.00;99.90
31783;DHT22;18351;47.560;9.708;2023-04-25T01:53:38;9.00;99.90
31783;DHT22;18351;47.560;9.708;2023-04-25T01:56:04;9.00;99.90
31783;DHT22;18351;47.560;9.708;2023-04-25T01:58:30;8.90;99.90
31783;DHT22;18351;47.560;9.708;2023-04-25T02:00:55;8.90;99.90
31783;DHT22;18351;47.560;9.708;2023-04-25T02:03:21;8.90;99.90
31783;DHT22;18351;47.560;9.708;2023-04-25T02:05:47;8.90;99.90
31783;DHT22;18351;47.560;9.708;2023-04-25T02:08:13;9.00;99.90
31783;DHT22;18351;47.560;9.708;2023-04-25T02:10:39;9.00;99.90
31783;DHT22;18351;47.560;9.708;2023-04-25T02:13:04;9.00;99.90
31783;DHT22;18351;47.560;9.708;2023-04-25T02:15:31;9.10;99.90
31783;DHT22;18351;47.560;9.708;2023-04-25T02:17:56;9.10;99.90
31783;DHT22;18351;47.560;9.708;2023-04-25T02:20:24;9.10;99.90
31783;DHT22;18351;47.560;9.708;2023-04-25T02:22:50;9.10;99.90
31783;DHT22;18351;47.560;9.708;2023-04-25T02:25:17;9.10;99.90
31783;DHT22;18351;47.560;9.708;2023-04-25T02:27:43;9.10;99.90
31783;DHT22;18351;47.560;9.708;2023-04-25T02:30:09;9.10;99.90
31783;DHT22;18351;47.560;9.708;2023-04-25T02:32:35;9.10;99.90
31783;DHT22;18351;47.560;9.708;2023-04-25T02:35:01;9.10;99.90
31783;DHT22;18351;47.560;9.708;2023-04-25T02:37:36;9.20;99.90
31783;DHT22;18351;47.560;9.708;2023-04-25T02:40:02;9.10;99.90
31783;DHT22;18351;47.560;9.708;2023-04-25T02:42:29;9.10;99.90
31783;DHT22;18351;47.560;9.708;2023-04-25T02:44:54;9.10;99.90
31783;DHT22;18351;47.560;9.708;2023-04-25T02:47:20;9.10;99.90
31783;DHT22;18351;47.560;9.708;2023-04-25T02:49:46;9.10;99.90
31783;DHT22;18351;47.560;9.708;2023-04-25T02:52:12;9.10;99.90
31783;DHT22;18351;47.560;9.708;2023-04-25T02:54:40;9.00;99.90
31783;DHT22;18351;47.560;9.708;2023-04-25T02:57:06;9.00;99.90
31783;DHT22;18351;47.560;9.708;2023-04-25T02:59:32;9.00;99.90
31783;DHT22;18351;47.560;9.708;2023-04-25T03:01:58;9.00;99.90
31783;DHT22;18351;47.560;9.708;2023-04-25T03:04:23;9.10;99.90
31783;DHT22;18351;47.560;9.708;2023-04-25T03:06:50;9.10;99.90
31783;DHT22;18351;47.560;9.708;2023-04-25T03:09:15;9.10;99.90
31783;DHT22;18351;47.560;9.708;2023-04-25T03:11:41;9.10;99.90
31783;DHT22;18351;47.560;9.708;2023-04-25T03:14:07;9.10;99.90
31783;DHT22;18351;47.560;9.708;2023-04-25T03:16:32;9.10;99.90
31783;DHT22;18351;47.560;9.708;2023-04-25T03:18:59;9.10;99.90
31783;DHT22;18351;47.560;9.708;2023-04-25T03:21:24;9.10;99.90
31783;DHT22;18351;47.560;9.708;2023-04-25T03:23:50;9.10;99.90
31783;DHT22;18351;47.560;9.708;2023-04-25T03:26:16;9.10;99.90
31783;DHT22;18351;47.560;9.708;2023-04-25T03:28:42;9.00;99.90
31783;DHT22;18351;47.560;9.708;2023-04-25T03:31:07;9.00;99.90
31783;DHT22;18351;47.560;9.708;2023-04-25T03:33:33;9.10;99.90
31783;DHT22;18351;47.560;9.708;2023-04-25T03:35:58;9.00;99.90
31783;DHT22;18351;47.560;9.708;2023-04-25T03:38:24;9.00;99.90
31783;DHT22;18351;47.560;9.708;2023-04-25T03:40:51;9.00;99.90
31783;DHT22;18351;47.560;9.708;2023-04-25T03:43:16;8.90;99.90
31783;DHT22;18351;47.560;9.708;2023-04-25T03:45:42;8.90;99.90
31783;DHT22;18351;47.560;9.708;2023-04-25T03:48:08;8.90;99.90
31783;DHT22;18351;47.560;9.708;2023-04-25T03:50:33;8.90;99.90
31783;DHT22;18351;47.560;9.708;2023-04-25T03:52:59;8.90;99.90
31783;DHT22;18351;47.560;9.708;2023-04-25T03:55:25;8.80;99.90
31783;DHT22;18351;47.560;9.708;2023-04-25T03:57:50;8.80;99.90
31783;DHT22;18351;47.560;9.708;2023-04-25T04:00:16;8.70;99.90
31783;DHT22;18351;47.560;9.708;2023-04-25T04:02:42;8.70;99.90
31783;DHT22;18351;47.560;9.708;2023-04-25T04:05:08;8.80;99.90
31783;DHT22;18351;47.560;9.708;2023-04-25T04:07:33;8.70;99.90
31783;DHT22;18351;47.560;9.708;2023-04-25T04:10:11;8.70;99.90
31783;DHT22;18351;47.560;9.708;2023-04-25T04:12:37;8.70;99.90
31783;DHT22;18351;47.560;9.708;2023-04-25T04:15:04;8.70;99.90
31783;DHT22;18351;47.560;9.708;2023-04-25T04:17:31;8.80;99.90
31783;DHT22;18351;47.560;9.708;2023-04-25T04:19:57;8.60;99.90
31783;DHT22;18351;47.560;9.708;2023-04-25T04:22:23;8.70;99.90
31783;DHT22;18351;47.560;9.708;2023-04-25T04:24:49;8.70;99.90
31783;DHT22;18351;47.560;9.708;2023-04-25T04:27:18;8.60;99.90
31783;DHT22;18351;47.560;9.708;2023-04-25T04:29:45;8.50;99.90
31783;DHT22;18351;47.560;9.708;2023-04-25T04:32:11;8.40;99.90
31783;DHT22;18351;47.560;9.708;2023-04-25T04:34:37;8.30;99.90
31783;DHT22;18351;47.560;9.708;2023-04-25T04:37:04;8.30;99.90
31783;DHT22;18351;47.560;9.708;2023-04-25T04:39:30;8.20;99.90
31783;DHT22;18351;47.560;9.708;2023-04-25T04:41:56;8.10;99.90
31783;DHT22;18351;47.560;9.708;2023-04-25T04:44:21;8.10;99.90
31783;DHT22;18351;47.560;9.708;2023-04-25T04:46:48;8.10;99.90
31783;DHT22;18351;47.560;9.708;2023-04-25T04:49:13;8.00;99.90
31783;DHT22;18351;47.560;9.708;2023-04-25T04:51:39;8.10;99.90
31783;DHT22;18351;47.560;9.708;2023-04-25T04:54:06;8.00;99.90
31783;DHT22;18351;47.560;9.708;2023-04-25T04:56:32;7.90;99.90
31783;DHT22;18351;47.560;9.708;2023-04-25T04:58:58;7.90;99.90
31783;DHT22;18351;47.560;9.708;2023-04-25T05:01:24;7.90;99.90
31783;DHT22;18351;47.560;9.708;2023-04-25T05:03:50;7.90;99.90
31783;DHT22;18351;47.560;9.708;2023-04-25T05:06:17;7.80;99.90
31783;DHT22;18351;47.560;9.708;2023-04-25T05:08:43;7.80;99.90
31783;DHT22;18351;47.560;9.708;2023-04-25T05:11:09;7.80;99.90
31783;DHT22;18351;47.560;9.708;2023-04-25T05:13:34;7.90;99.90
31783;DHT22;18351;47.560;9.708;2023-04-25T05:16:00;7.90;99.90
31783;DHT22;18351;47.560;9.708;2023-04-25T05:18:25;8.00;99.90
31783;DHT22;18351;47.560;9.708;2023-04-25T05:20:51;7.90;99.90
31783;DHT22;18351;47.560;9.708;2023-04-25T05:23:17;7.90;99.90
31783;DHT22;18351;47.560;9.708;2023-04-25T05:25:42;8.00;99.90
31783;DHT22;18351;47.560;9.708;2023-04-25T05:28:08;8.10;99.90
31783;DHT22;18351;47.560;9.708;2023-04-25T05:30:34;8.20;99.90
31783;DHT22;18351;47.560;9.708;2023-04-25T05:32:59;8.40;99.90
31783;DHT22;18351;47.560;9.708;2023-04-25T05:35:26;8.60;99.90
31783;DHT22;18351;47.560;9.708;2023-04-25T05:37:52;8.70;99.90
31783;DHT22;18351;47.560;9.708;2023-04-25T05:40:17;9.00;99.90
31783;DHT22;18351;47.560;9.708;2023-04-25T05:42:43;9.30;99.90
31783;DHT22;18351;47.560;9.708;2023-04-25T05:45:09;9.60;99.90
31783;DHT22;18351;47.560;9.708;2023-04-25T05:47:35;9.80;99.90
31783;DHT22;18351;47.560;9.708;2023-04-25T05:50:00;10.00;99.90
31783;DHT22;18351;47.560;9.708;2023-04-25T05:52:26;10.30;99.90
31783;DHT22;18351;47.560;9.708;2023-04-25T05:54:51;10.50;99.90
31783;DHT22;18351;47.560;9.708;2023-04-25T05:57:24;10.70;99.90
31783;DHT22;18351;47.560;9.708;2023-04-25T05:59:50;10.90;99.90
31783;DHT22;18351;47.560;9.708;2023-04-25T06:02:18;11.10;99.90
31783;DHT22;18351;47.560;9.708;2023-04-25T06:04:44;11.20;99.90
31783;DHT22;18351;47.560;9.708;2023-04-25T06:07:09;11.40;99.90
31783;DHT22;18351;47.560;9.708;2023-04-25T06:09:35;11.50;99.90
31783;DHT22;18351;47.560;9.708;2023-04-25T06:12:01;11.60;99.90
31783;DHT22;18351;47.560;9.708;2023-04-25T06:14:27;11.80;99.90
31783;DHT22;18351;47.560;9.708;2023-04-25T06:16:52;11.90;99.90
31783;DHT22;18351;47.560;9.708;2023-04-25T06:19:18;11.90;99.90
31783;DHT22;18351;47.560;9.708;2023-04-25T06:21:44;12.00;99.90
31783;DHT22;18351;47.560;9.708;2023-04-25T06:24:09;12.30;99.90
31783;DHT22;18351;47.560;9.708;2023-04-25T06:26:35;12.40;99.90
31783;DHT22;18351;47.560;9.708;2023-04-25T06:29:01;12.60;99.90
31783;DHT22;18351;47.560;9.708;2023-04-25T06:31:26;12.90;99.90
31783;DHT22;18351;47.560;9.708;2023-04-25T06:33:54;13.50;99.90
31783;DHT22;18351;47.560;9.708;2023-04-25T06:36:20;14.00;99.90
31783;DHT22;18351;47.560;9.708;2023-04-25T06:38:50;14.50;99.90
31783;DHT22;18351;47.560;9.708;2023-04-25T06:41:16;14.70;99.90
31783;DHT22;18351;47.560;9.708;2023-04-25T06:43:45;14.80;99.90
31783;DHT22;18351;47.560;9.708;2023-04-25T06:46:14;14.60;99.90
31783;DHT22;18351;47.560;9.708;2023-04-25T06:48:40;14.50;99.60
31783;DHT22;18351;47.560;9.708;2023-04-25T06:51:05;14.40;99.90
31783;DHT22;18351;47.560;9.708;2023-04-25T06:53:31;14.20;99.90
31783;DHT22;18351;47.560;9.708;2023-04-25T06:55:56;13.90;99.00
31783;DHT22;18351;47.560;9.708;2023-04-25T06:58:22;13.70;99.90
31783;DHT22;18351;47.560;9.708;2023-04-25T07:00:47;13.60;99.90
31783;DHT22;18351;47.560;9.708;2023-04-25T07:03:13;13.40;99.90
31783;DHT22;18351;47.560;9.708;2023-04-25T07:05:38;13.30;99.90
31783;DHT22;18351;47.560;9.708;2023-04-25T07:08:04;13.30;99.00
31783;DHT22;18351;47.560;9.708;2023-04-25T07:10:30;13.30;99.30
31783;DHT22;18351;47.560;9.708;2023-04-25T07:12:55;13.00;98.10
31783;DHT22;18351;47.560;9.708;2023-04-25T07:15:21;12.90;98.70
31783;DHT22;18351;47.560;9.708;2023-04-25T07:17:46;12.80;98.80
31783;DHT22;18351;47.560;9.708;2023-04-25T07:20:12;12.80;99.00
31783;DHT22;18351;47.560;9.708;2023-04-25T07:22:38;12.90;98.30
31783;DHT22;18351;47.560;9.708;2023-04-25T07:25:04;12.90;98.20
31783;DHT22;18351;47.560;9.708;2023-04-25T07:27:30;12.90;97.40
31783;DHT22;18351;47.560;9.708;2023-04-25T07:29:56;13.00;97.00
31783;DHT22;18351;47.560;9.708;2023-04-25T07:32:22;13.20;97.50
31783;DHT22;18351;47.560;9.708;2023-04-25T07:34:48;13.30;96.20
31783;DHT22;18351;47.560;9.708;2023-04-25T07:37:14;13.20;93.70
31783;DHT22;18351;47.560;9.708;2023-04-25T07:39:40;13.30;94.00
31783;DHT22;18351;47.560;9.708;2023-04-25T07:42:05;13.20;93.10
31783;DHT22;18351;47.560;9.708;2023-04-25T07:44:34;13.20;92.70
31783;DHT22;18351;47.560;9.708;2023-04-25T07:47:04;13.10;92.10
31783;DHT22;18351;47.560;9.708;2023-04-25T07:49:32;13.00;92.70
31783;DHT22;18351;47.560;9.708;2023-04-25T07:51:58;13.10;93.60
31783;DHT22;18351;47.560;9.708;2023-04-25T07:54:24;13.10;93.80
31783;DHT22;18351;47.560;9.708;2023-04-25T07:56:50;13.20;93.70
31783;DHT22;18351;47.560;9.708;2023-04-25T07:59:16;13.40;94.70
31783;DHT22;18351;47.560;9.708;2023-04-25T08:01:41;13.40;93.50
31783;DHT22;18351;47.560;9.708;2023-04-25T08:04:07;13.30;93.10
31783;DHT22;18351;47.560;9.708;2023-04-25T08:06:32;13.10;95.30
31783;DHT22;18351;47.560;9.708;2023-04-25T08:08:58;12.80;96.00
31783;DHT22;18351;47.560;9.708;2023-04-25T08:11:23;12.50;96.10
31783;DHT22;18351;47.560;9.708;2023-04-25T08:13:49;12.10;95.60
31783;DHT22;18351;47.560;9.708;2023-04-25T08:16:14;11.80;98.70
31783;DHT22;18351;47.560;9.708;2023-04-25T08:18:41;11.30;99.90
31783;DHT22;18351;47.560;9.708;2023-04-25T08:21:06;10.60;99.90
31783;DHT22;18351;47.560;9.708;2023-04-25T08:23:34;10.00;99.90
31783;DHT22;18351;47.560;9.708;2023-04-25T08:25:59;9.70;99.90
31783;DHT22;18351;47.560;9.708;2023-04-25T08:28:25;9.60;99.90
31783;DHT22;18351;47.560;9.708;2023-04-25T08:30:51;9.50;99.90
31783;DHT22;18351;47.560;9.708;2023-04-25T08:33:16;9.40;99.90
31783;DHT22;18351;47.560;9.708;2023-04-25T08:35:43;9.30;99.90
31783;DHT22;18351;47.560;9.708;2023-04-25T08:38:09;9.30;99.90
31783;DHT22;18351;47.560;9.708;2023-04-25T08:40:38;9.40;99.90
31783;DHT22;18351;47.560;9.708;2023-04-25T08:43:05;9.30;99.90
31783;DHT22;18351;47.560;9.708;2023-04-25T08:45:39;9.30;99.90
31783;DHT22;18351;47.560;9.708;2023-04-25T08:48:11;9.30;99.90
31783;DHT22;18351;47.560;9.708;2023-04-25T08:50:43;9.30;99.90
31783;DHT22;18351;47.560;9.708;2023-04-25T08:53:12;9.30;99.90
31783;DHT22;18351;47.560;9.708;2023-04-25T08:55:43;9.30;99.90
31783;DHT22;18351;47.560;9.708;2023-04-25T08:58:11;9.40;99.90
31783;DHT22;18351;47.560;9.708;2023-04-25T09:00:36;9.40;99.90
31783;DHT22;18351;47.560;9.708;2023-04-25T09:03:03;9.50;99.90
31783;DHT22;18351;47.560;9.708;2023-04-25T09:05:28;9.50;99.90
31783;DHT22;18351;47.560;9.708;2023-04-25T09:07:54;9.50;99.90
31783;DHT22;18351;47.560;9.708;2023-04-25T09:10:21;9.60;99.90
31783;DHT22;18351;47.560;9.708;2023-04-25T09:13:05;9.60;99.90
31783;DHT22;18351;47.560;9.708;2023-04-25T09:15:31;9.70;99.90
31783;DHT22;18351;47.560;9.708;2023-04-25T09:17:57;9.80;99.90
31783;DHT22;18351;47.560;9.708;2023-04-25T09:20:23;9.80;99.90
31783;DHT22;18351;47.560;9.708;2023-04-25T09:23:01;9.80;99.90
31783;DHT22;18351;47.560;9.708;2023-04-25T09:25:26;9.90;99.90
31783;DHT22;18351;47.560;9.708;2023-04-25T09:27:53;10.00;99.90
31783;DHT22;18351;47.560;9.708;2023-04-25T09:30:29;10.10;99.90
31783;DHT22;18351;47.560;9.708;2023-04-25T09:33:10;10.20;99.90
31783;DHT22;18351;47.560;9.708;2023-04-25T09:35:43;10.50;99.90
31783;DHT22;18351;47.560;9.708;2023-04-25T09:38:13;10.70;99.90
31783;DHT22;18351;47.560;9.708;2023-04-25T09:40:44;10.80;99.90
31783;DHT22;18351;47.560;9.708;2023-04-25T09:43:20;10.90;99.90
31783;DHT22;18351;47.560;9.708;2023-04-25T09:45:47;10.90;99.90
31783;DHT22;18351;47.560;9.708;2023-04-25T09:48:22;10.90;99.90
31783;DHT22;18351;47.560;9.708;2023-04-25T09:51:11;10.80;99.90
31783;DHT22;18351;47.560;9.708;2023-04-25T09:53:44;10.80;99.90
31783;DHT22;18351;47.560;9.708;2023-04-25T09:56:12;10.70;99.90
31783;DHT22;18351;47.560;9.708;2023-04-25T09:58:39;10.50;99.90
31783;DHT22;18351;47.560;9.708;2023-04-25T10:01:06;10.30;99.90
31783;DHT22;18351;47.560;9.708;2023-04-25T10:03:34;10.30;99.90
31783;DHT22;18351;47.560;9.708;2023-04-25T10:06:02;10.20;99.90
31783;DHT22;18351;47.560;9.708;2023-04-25T10:08:32;10.20;99.90
31783;DHT22;18351;47.560;9.708;2023-04-25T10:11:02;10.10;99.90
31783;DHT22;18351;47.560;9.708;2023-04-25T10:13:32;10.10;99.90
31783;DHT22;18351;47.560;9.708;2023-04-25T10:15:59;10.10;99.90
31783;DHT22;18351;47.560;9.708;2023-04-25T10:18:26;10.10;99.90
31783;DHT22;18351;47.560;9.708;2023-04-25T10:21:00;10.20;99.90
31783;DHT22;18351;47.560;9.708;2023-04-25T10:23:27;10.10;99.90
31783;DHT22;18351;47.560;9.708;2023-04-25T10:25:54;10.00;99.90
31783;DHT22;18351;47.560;9.708;2023-04-25T10:28:20;9.90;99.90
31783;DHT22;18351;47.560;9.708;2023-04-25T10:31:07;9.80;99.90
31783;DHT22;18351;47.560;9.708;2023-04-25T10:33:36;9.80;99.90
31783;DHT22;18351;47.560;9.708;2023-04-25T10:38:36;10.10;99.90
31783;DHT22;18351;47.560;9.708;2023-04-25T10:41:06;10.30;99.90
31783;DHT22;18351;47.560;9.708;2023-04-25T10:43:42;10.50;99.90
31783;DHT22;18351;47.560;9.708;2023-04-25T10:46:17;10.60;99.90
31783;DHT22;18351;47.560;9.708;2023-04-25T10:48:54;10.80;99.90
31783;DHT22;18351;47.560;9.708;2023-04-25T10:56:45;11.50;99.90
31783;DHT22;18351;47.560;9.708;2023-04-25T10:59:12;11.30;99.90
31783;DHT22;18351;47.560;9.708;2023-04-25T11:01:41;11.30;99.90
31783;DHT22;18351;47.560;9.708;2023-04-25T11:04:28;11.30;99.90
31783;DHT22;18351;47.560;9.708;2023-04-25T11:09:36;11.70;99.90
31783;DHT22;18351;47.560;9.708;2023-04-25T11:12:03;11.80;99.90
31783;DHT22;18351;47.560;9.708;2023-04-25T11:14:29;11.90;99.90
31783;DHT22;18351;47.560;9.708;2023-04-25T11:16:58;11.90;99.90
31783;DHT22;18351;47.560;9.708;2023-04-25T11:19:25;11.90;99.90
31783;DHT22;18351;47.560;9.708;2023-04-25T11:21:54;11.80;99.90
31783;DHT22;18351;47.560;9.708;2023-04-25T11:24:26;11.80;99.90
31783;DHT22;18351;47.560;9.708;2023-04-25T11:26:52;11.80;99.90
31783;DHT22;18351;47.560;9.708;2023-04-25T11:29:17;11.80;99.90
31783;DHT22;18351;47.560;9.708;2023-04-25T11:31:44;11.60;99.90
31783;DHT22;18351;47.560;9.708;2023-04-25T11:34:11;11.40;99.90
31783;DHT22;18351;47.560;9.708;2023-04-25T11:36:38;11.60;99.90
31783;DHT22;18351;47.560;9.708;2023-04-25T11:39:03;12.00;99.90
31783;DHT22;18351;47.560;9.708;2023-04-25T11:41:31;12.20;99.90
31783;DHT22;18351;47.560;9.708;2023-04-25T11:43:56;12.50;99.90
31783;DHT22;18351;47.560;9.708;2023-04-25T11:46:22;12.70;99.90
31783;DHT22;18351;47.560;9.708;2023-04-25T11:48:47;13.10;99.90
31783;DHT22;18351;47.560;9.708;2023-04-25T11:51:15;13.30;99.90
31783;DHT22;18351;47.560;9.708;2023-04-25T11:53:42;13.40;99.90
31783;DHT22;18351;47.560;9.708;2023-04-25T11:56:11;13.30;99.90
31783;DHT22;18351;47.560;9.708;2023-04-25T11:59:02;13.10;99.90
31783;DHT22;18351;47.560;9.708;2023-04-25T12:01:29;13.00;99.90
31783;DHT22;18351;47.560;9.708;2023-04-25T12:03:56;12.90;99.90
31783;DHT22;18351;47.560;9.708;2023-04-25T12:06:25;12.70;99.90
31783;DHT22;18351;47.560;9.708;2023-04-25T12:09:06;12.40;99.90
31783;DHT22;18351;47.560;9.708;2023-04-25T12:11:32;11.90;99.90
31783;DHT22;18351;47.560;9.708;2023-04-25T12:14:04;11.60;99.90
31783;DHT22;18351;47.560;9.708;2023-04-25T12:16:39;11.40;99.90
31783;DHT22;18351;47.560;9.708;2023-04-25T12:19:05;11.30;99.90
31783;DHT22;18351;47.560;9.708;2023-04-25T12:21:32;11.30;99.90
31783;DHT22;18351;47.560;9.708;2023-04-25T12:24:11;11.30;99.90
31783;DHT22;18351;47.560;9.708;2023-04-25T12:27:02;11.30;99.90
31783;DHT22;18351;47.560;9.708;2023-04-25T12:29:29;11.10;99.90
31783;DHT22;18351;47.560;9.708;2023-04-25T12:31:56;11.30;99.90
31783;DHT22;18351;47.560;9.708;2023-04-25T12:34:23;11.70;99.90
31783;DHT22;18351;47.560;9.708;2023-04-25T12:36:49;12.00;99.90
31783;DHT22;18351;47.560;9.708;2023-04-25T12:39:23;12.30;99.90
31783;DHT22;18351;47.560;9.708;2023-04-25T12:41:50;12.50;99.90
31783;DHT22;18351;47.560;9.708;2023-04-25T12:44:16;12.60;99.90
31783;DHT22;18351;47.560;9.708;2023-04-25T12:46:42;12.50;99.90
31783;DHT22;18351;47.560;9.708;2023-04-25T12:49:08;12.40;99.90
31783;DHT22;18351;47.560;9.708;2023-04-25T12:51:34;12.10;99.90
31783;DHT22;18351;47.560;9.708;2023-04-25T12:54:01;11.60;99.90
31783;DHT22;18351;47.560;9.708;2023-04-25T12:56:27;11.40;99.90
31783;DHT22;18351;47.560;9.708;2023-04-25T12:58:54;11.10;99.90
31783;DHT22;18351;47.560;9.708;2023-04-25T13:01:23;10.90;99.90
31783;DHT22;18351;47.560;9.708;2023-04-25T13:03:49;10.80;99.90
31783;DHT22;18351;47.560;9.708;2023-04-25T13:06:15;11.00;99.90
31783;DHT22;18351;47.560;9.708;2023-04-25T13:08:41;11.00;99.90
31783;DHT22;18351;47.560;9.708;2023-04-25T13:11:08;11.00;99.90
31783;DHT22;18351;47.560;9.708;2023-04-25T13:13:33;11.10;99.90
31783;DHT22;18351;47.560;9.708;2023-04-25T13:16:03;11.10;99.90
31783;DHT22;18351;47.560;9.708;2023-04-25T13:18:32;10.90;99.90
31783;DHT22;18351;47.560;9.708;2023-04-25T13:20:59;10.80;99.90
31783;DHT22;18351;47.560;9.708;2023-04-25T13:23:26;10.70;99.90
31783;DHT22;18351;47.560;9.708;2023-04-25T13:25:53;10.50;99.90
31783;DHT22;18351;47.560;9.708;2023-04-25T13:28:18;10.40;99.90
31783;DHT22;18351;47.560;9.708;2023-04-25T13:30:44;10.50;99.90
31783;DHT22;18351;47.560;9.708;2023-04-25T13:33:10;10.50;99.90
31783;DHT22;18351;47.560;9.708;2023-04-25T13:35:36;10.70;99.90
31783;DHT22;18351;47.560;9.708;2023-04-25T13:38:02;10.80;99.90
31783;DHT22;18351;47.560;9.708;2023-04-25T13:40:28;11.00;99.90
31783;DHT22;18351;47.560;9.708;2023-04-25T13:42:55;11.40;99.90
31783;DHT22;18351;47.560;9.708;2023-04-25T13:45:21;11.80;99.90
31783;DHT22;18351;47.560;9.708;2023-04-25T13:47:47;11.90;99.90
31783;DHT22;18351;47.560;9.708;2023-04-25T13:50:13;12.00;99.90
31783;DHT22;18351;47.560;9.708;2023-04-25T13:52:39;11.90;99.90
31783;DHT22;18351;47.560;9.708;2023-04-25T13:55:06;12.10;99.90
31783;DHT22;18351;47.560;9.708;2023-04-25T13:57:32;12.50;99.90
31783;DHT22;18351;47.560;9.708;2023-04-25T13:59:58;12.70;99.90
31783;DHT22;18351;47.560;9.708;2023-04-25T14:02:24;12.90;99.90
31783;DHT22;18351;47.560;9.708;2023-04-25T14:04:50;13.30;99.90
31783;DHT22;18351;47.560;9.708;2023-04-25T14:07:15;13.60;99.90
31783;DHT22;18351;47.560;9.708;2023-04-25T14:09:41;13.70;99.90
31783;DHT22;18351;47.560;9.708;2023-04-25T14:12:07;13.70;99.90
31783;DHT22;18351;47.560;9.708;2023-04-25T14:14:32;13.60;99.90
31783;DHT22;18351;47.560;9.708;2023-04-25T14:16:58;13.60;99.90
31783;DHT22;18351;47.560;9.708;2023-04-25T14:19:24;13.60;99.90
31783;DHT22;18351;47.560;9.708;2023-04-25T14:21:50;13.40;99.90
31783;DHT22;18351;47.560;9.708;2023-04-25T14:24:15;13.30;99.90
31783;DHT22;18351;47.560;9.708;2023-04-25T14:26:41;13.10;99.90
31783;DHT22;18351;47.560;9.708;2023-04-25T14:29:08;12.70;99.90
31783;DHT22;18351;47.560;9.708;2023-04-25T14:31:34;12.40;99.90
31783;DHT22;18351;47.560;9.708;2023-04-25T14:34:01;12.20;99.90
31783;DHT22;18351;47.560;9.708;2023-04-25T14:36:28;11.80;99.90
31783;DHT22;18351;47.560;9.708;2023-04-25T14:38:54;11.40;99.90
31783;DHT22;18351;47.560;9.708;2023-04-25T14:41:20;11.00;99.90
31783;DHT22;18351;47.560;9.708;2023-04-25T14:43:46;10.70;99.90
31783;DHT22;18351;47.560;9.708;2023-04-25T14:46:12;10.50;99.90
31783;DHT22;18351;47.560;9.708;2023-04-25T14:48:38;10.40;99.90
31783;DHT22;18351;47.560;9.708;2023-04-25T14:51:04;10.40;99.90
31783;DHT22;18351;47.560;9.708;2023-04-25T14:53:31;10.10;99.90
31783;DHT22;18351;47.560;9.708;2023-04-25T14:55:56;10.00;99.90
31783;DHT22;18351;47.560;9.708;2023-04-25T14:58:22;9.80;99.90
31783;DHT22;18351;47.560;9.708;2023-04-25T15:00:48;9.70;99.90
31783;DHT22;18351;47.560;9.708;2023-04-25T15:03:13;9.80;99.90
31783;DHT22;18351;47.560;9.708;2023-04-25T15:05:41;10.00;99.90
31783;DHT22;18351;47.560;9.708;2023-04-25T15:08:07;10.20;99.90
31783;DHT22;18351;47.560;9.708;2023-04-25T15:10:33;10.30;99.90
31783;DHT22;18351;47.560;9.708;2023-04-25T15:12:59;10.50;99.90
31783;DHT22;18351;47.560;9.708;2023-04-25T15:15:24;10.50;99.90
31783;DHT22;18351;47.560;9.708;2023-04-25T15:17:50;10.30;99.90
31783;DHT22;18351;47.560;9.708;2023-04-25T15:20:16;10.30;99.90
31783;DHT22;18351;47.560;9.708;2023-04-25T15:22:43;10.40;99.90
31783;DHT22;18351;47.560;9.708;2023-04-25T15:25:10;10.40;99.90
31783;DHT22;18351;47.560;9.708;2023-04-25T15:27:39;10.20;99.90
31783;DHT22;18351;47.560;9.708;2023-04-25T15:30:11;10.20;99.90
31783;DHT22;18351;47.560;9.708;2023-04-25T15:32:38;9.80;99.90
31783;DHT22;18351;47.560;9.708;2023-04-25T15:35:05;9.70;99.90
31783;DHT22;18351;47.560;9.708;2023-04-25T15:37:32;9.70;99.90
31783;DHT22;18351;47.560;9.708;2023-04-25T15:42:26;9.60;99.90
31783;DHT22;18351;47.560;9.708;2023-04-25T15:44:52;9.40;99.90
31783;DHT22;18351;47.560;9.708;2023-04-25T15:47:17;9.20;99.90
31783;DHT22;18351;47.560;9.708;2023-04-25T15:49:43;8.90;99.90